Pershing, Missouri
Current Conditions -  °F | °C
As of 2:53 AM on Wednesday 28 Jan 2015 (Local Time) from KJEF Reporting Station
Clear Clear  
Wind Chill: 27°   Ceiling: Unl
Heat Index: 34°   Visibility: 10mi
Dew Point: 29°   Wind: 9mph
Humidity: 82%   Direction: 110°ESE
Pressure: 30.16"   Gusts: NA
Location:  38.5959°N, 91.6636°W
Report Text: KJEF 280853Z AUTO 11008KT 10SM CLR 01/M02 A3016 RMK AO2 SLP206 T00111017 58005
Loading
Personal Weather Stations






























Interactive Weather Map New forecast layout! Learn more

10-Day Weather Forecast

Advertisements
Track Severe Weather on mobile